createdAt,value
2023-04-11T00:01:57.439Z,99912.97
2023-04-11T00:04:25.666Z,99910.25
2023-04-11T00:06:53.813Z,99904.97
2023-04-11T00:09:21.636Z,99903.69
2023-04-11T00:11:49.455Z,99908.94
2023-04-11T00:14:17.654Z,99912.69
2023-04-11T00:16:45.462Z,99916.25
2023-04-11T00:19:13.372Z,99913.53
2023-04-11T00:21:41.192Z,99918.13
2023-04-11T00:24:09.330Z,99908.28
2023-04-11T00:26:37.241Z,99914.09
2023-04-11T00:29:05.079Z,99916.44
2023-04-11T00:31:33.097Z,99911.66
2023-04-11T00:34:00.966Z,99913.72
2023-04-11T00:36:28.939Z,99911.00
2023-04-11T00:38:58.651Z,99925.66
2023-04-11T00:41:26.616Z,99930.03
2023-04-11T00:43:54.852Z,99929.03
2023-04-11T00:46:22.761Z,99924.59
2023-04-11T00:48:50.854Z,99924.81
2023-04-11T00:51:18.632Z,99925.00
2023-04-11T00:53:46.716Z,99921.44
2023-04-11T00:56:14.694Z,99925.00
2023-04-11T00:58:42.520Z,99929.41
2023-04-11T01:01:10.486Z,99931.25
2023-04-11T01:03:38.637Z,99929.59
2023-04-11T01:06:06.961Z,99923.09
2023-04-11T01:08:34.861Z,99927.72
2023-04-11T01:11:02.697Z,99921.44
2023-04-11T01:13:30.652Z,99916.00
2023-04-11T01:15:58.692Z,99913.44
2023-04-11T01:18:26.828Z,99913.09
2023-04-11T01:20:54.964Z,99911.19
2023-04-11T01:23:22.837Z,99911.00
2023-04-11T01:25:50.654Z,99912.69
2023-04-11T01:28:18.440Z,99898.69
2023-04-11T01:30:46.237Z,99890.53
2023-04-11T01:33:14.170Z,99894.31
2023-04-11T01:35:41.966Z,99875.03
2023-04-11T01:38:09.755Z,99873.38
2023-04-11T01:40:37.656Z,99864.56
2023-04-11T01:43:05.500Z,99869.81
2023-04-11T01:45:33.557Z,99868.75
2023-04-11T01:48:01.449Z,99873.75
2023-04-11T01:50:29.371Z,99871.03
2023-04-11T01:52:57.191Z,99874.38
2023-04-11T01:55:25.045Z,99859.28
2023-04-11T01:57:52.861Z,99856.78
2023-04-11T02:00:20.646Z,99841.03
2023-04-11T02:02:48.601Z,99824.72
2023-04-11T02:05:16.652Z,99808.78
2023-04-11T02:07:45.175Z,99805.41
2023-04-11T02:10:13.022Z,99802.91
2023-04-11T02:12:40.831Z,99816.69
2023-04-11T02:15:08.816Z,99813.97
2023-04-11T02:17:37.000Z,99813.78
2023-04-11T02:20:06.987Z,99813.31
2023-04-11T02:22:34.877Z,99808.69
2023-04-11T02:25:02.706Z,99814.13
2023-04-11T02:27:31.535Z,99802.81
2023-04-11T02:30:00.375Z,99806.59
2023-04-11T02:32:30.479Z,99800.50
2023-04-11T02:34:58.435Z,99818.69
2023-04-11T02:37:26.505Z,99808.66
2023-04-11T02:39:54.333Z,99808.16
2023-04-11T02:42:22.137Z,99813.59
2023-04-11T02:44:49.918Z,99807.31
2023-04-11T02:47:17.776Z,99807.31
2023-04-11T02:49:45.768Z,99804.59
2023-04-11T02:52:13.716Z,99808.34
2023-04-11T02:54:41.630Z,99799.53
2023-04-11T02:57:09.440Z,99794.09
2023-04-11T02:59:37.218Z,99787.84
2023-04-11T03:02:05.076Z,99772.75
2023-04-11T03:04:32.940Z,99772.75
2023-04-11T03:07:01.091Z,99765.41
2023-04-11T03:09:28.905Z,99753.69
2023-04-11T03:11:57.614Z,99745.72
2023-04-11T03:14:25.471Z,99740.28
2023-04-11T03:16:53.223Z,99740.50
2023-04-11T03:19:21.170Z,99721.66
2023-04-11T03:21:48.888Z,99730.63
2023-04-11T03:24:17.912Z,99718.09
2023-04-11T03:26:45.829Z,99712.84
2023-04-11T03:29:13.587Z,99729.16
2023-04-11T03:31:41.414Z,99730.19
2023-04-11T03:34:09.252Z,99731.25
2023-04-11T03:36:37.085Z,99722.03
2023-04-11T03:39:04.907Z,99718.50
2023-04-11T03:41:32.733Z,99717.84
2023-04-11T03:44:00.547Z,99717.19
2023-04-11T03:46:28.477Z,99718.00
2023-04-11T03:48:56.440Z,99708.00
2023-04-11T03:51:24.429Z,99706.31
2023-04-11T03:53:52.730Z,99702.94
2023-04-11T03:56:20.956Z,99696.88
2023-04-11T03:58:48.788Z,99695.81
2023-04-11T04:01:16.616Z,99699.19
2023-04-11T04:03:44.568Z,99706.53
2023-04-11T04:06:12.551Z,99710.91
2023-04-11T04:08:40.303Z,99705.66
2023-04-11T04:11:08.056Z,99707.75
2023-04-11T04:13:36.253Z,99697.50
2023-04-11T04:16:04.207Z,99689.56
2023-04-11T04:18:32.352Z,99691.88
2023-04-11T04:21:00.269Z,99695.03
2023-04-11T04:23:28.125Z,99707.13
2023-04-11T04:25:58.090Z,99706.78
2023-04-11T04:28:26.594Z,99708.63
2023-04-11T04:30:58.094Z,99709.69
2023-04-11T04:33:27.538Z,99699.63
2023-04-11T04:36:00.098Z,99700.94
2023-04-11T04:38:29.054Z,99699.88
2023-04-11T04:40:56.965Z,99713.97
2023-04-11T04:43:24.732Z,99717.69
2023-04-11T04:45:52.634Z,99707.47
2023-04-11T04:48:20.412Z,99705.78
2023-04-11T04:50:48.228Z,99705.97
2023-04-11T04:53:16.058Z,99717.69
2023-04-11T04:55:43.957Z,99717.69
2023-04-11T04:58:11.795Z,99724.84
2023-04-11T05:00:40.883Z,99730.63
2023-04-11T05:03:11.090Z,99719.75
2023-04-11T05:05:39.120Z,99729.81
2023-04-11T05:08:08.080Z,99727.31
2023-04-11T05:10:36.040Z,99743.63
2023-04-11T05:13:03.881Z,99729.53
2023-04-11T05:15:31.663Z,99737.31
2023-04-11T05:17:59.467Z,99733.97
2023-04-11T05:20:29.855Z,99731.88
2023-04-11T05:22:57.704Z,99734.81
2023-04-11T05:25:26.061Z,99713.06
2023-04-11T05:27:53.816Z,99729.38
2023-04-11T05:30:21.582Z,99705.53
2023-04-11T05:32:49.376Z,99699.44
2023-04-11T05:35:17.219Z,99713.06
2023-04-11T05:37:45.091Z,99732.09
2023-04-11T05:40:13.176Z,99753.84
2023-04-11T05:42:41.256Z,99754.50
2023-04-11T05:45:09.092Z,99751.56
2023-04-11T05:47:36.878Z,99749.69
2023-04-11T05:50:04.687Z,99750.72
2023-04-11T05:52:32.483Z,99756.56
2023-04-11T05:55:01.545Z,99743.63
2023-04-11T05:57:29.403Z,99736.94
2023-04-11T05:59:57.213Z,99714.97
2023-04-11T06:02:25.056Z,99701.59
2023-04-11T06:04:53.010Z,99707.22
2023-04-11T06:07:21.636Z,99741.72
2023-04-11T06:09:49.535Z,99751.78
2023-04-11T06:12:17.315Z,99756.94
2023-04-11T06:14:45.069Z,99764.06
2023-04-11T06:17:12.794Z,99758.44
2023-04-11T06:19:40.667Z,99757.41
2023-04-11T06:22:08.464Z,99765.38
2023-04-11T06:24:36.409Z,99759.06
2023-04-11T06:27:04.772Z,99757.41
2023-04-11T06:29:32.573Z,99754.84
2023-04-11T06:32:00.500Z,99755.31
2023-04-11T06:34:28.336Z,99748.84
2023-04-11T06:36:56.150Z,99745.28
2023-04-11T06:39:23.999Z,99733.56
2023-04-11T06:41:51.789Z,99739.66
2023-04-11T06:44:19.631Z,99745.28
2023-04-11T06:46:47.437Z,99756.16
2023-04-11T06:49:15.531Z,99756.16
2023-04-11T06:51:43.342Z,99766.88
2023-04-11T06:54:11.186Z,99760.75
2023-04-11T06:56:38.962Z,99765.38
2023-04-11T06:59:07.026Z,99762.66
2023-04-11T07:01:37.941Z,99761.59
2023-04-11T07:04:06.160Z,99755.13
2023-04-11T07:06:35.475Z,99756.81
2023-04-11T07:09:03.300Z,99758.69
2023-04-11T07:11:31.205Z,99763.09
2023-04-11T07:13:59.045Z,99770.41
2023-04-11T07:16:27.090Z,99774.16
2023-04-11T07:18:55.150Z,99776.69
2023-04-11T07:21:22.903Z,99774.63
2023-04-11T07:23:52.414Z,99780.91
2023-04-11T07:26:20.188Z,99775.47
2023-04-11T07:28:48.021Z,99770.84
2023-04-11T07:31:17.628Z,99778.63
2023-04-11T07:33:45.531Z,99784.72
2023-04-11T07:36:13.378Z,99780.09
2023-04-11T07:38:41.367Z,99773.19
2023-04-11T07:41:09.200Z,99775.91
2023-04-11T07:43:37.009Z,99778.22
2023-04-11T07:46:04.855Z,99766.16
2023-04-11T07:48:33.109Z,99761.34
2023-04-11T07:51:00.956Z,99775.63
2023-04-11T07:53:31.020Z,99782.53
2023-04-11T07:55:58.835Z,99786.34
2023-04-11T07:58:26.612Z,99791.22
2023-04-11T08:00:54.632Z,99798.81
2023-04-11T08:03:23.561Z,99795.03
2023-04-11T08:05:52.341Z,99807.59
2023-04-11T08:08:20.216Z,99807.22
2023-04-11T08:10:49.125Z,99817.06
2023-04-11T08:13:18.446Z,99814.34
2023-04-11T08:15:46.762Z,99813.16
2023-04-11T08:18:16.565Z,99815.94
2023-04-11T08:20:44.464Z,99815.34
2023-04-11T08:23:12.245Z,99809.47
2023-04-11T08:25:40.382Z,99804.22
2023-04-11T08:28:09.937Z,99815.09
2023-04-11T08:30:37.818Z,99813.66
2023-04-11T08:33:07.181Z,99807.84
2023-04-11T08:35:35.045Z,99809.75
2023-04-11T08:38:02.843Z,99805.97
2023-04-11T08:40:31.032Z,99794.72
2023-04-11T08:42:58.874Z,99789.06
2023-04-11T08:45:26.615Z,99797.69
2023-04-11T08:47:54.432Z,99792.84
2023-04-11T08:50:22.358Z,99785.97
2023-04-11T08:52:50.199Z,99792.47
2023-04-11T08:55:18.170Z,99777.81
2023-04-11T08:57:46.004Z,99796.72
2023-04-11T09:00:15.302Z,99803.47
2023-04-11T09:02:43.737Z,99802.56
2023-04-11T09:05:11.689Z,99790.78
2023-04-11T09:07:39.612Z,99799.94
2023-04-11T09:10:07.467Z,99808.34
2023-04-11T09:12:35.271Z,99796.78
2023-04-11T09:15:03.101Z,99795.72
2023-04-11T09:17:30.984Z,99796.19
2023-04-11T09:19:59.042Z,99786.97
2023-04-11T09:22:27.084Z,99780.09
2023-04-11T09:24:54.880Z,99780.94
2023-04-11T09:27:24.563Z,99780.28
2023-04-11T09:29:52.334Z,99772.97
2023-04-11T09:32:20.236Z,99782.19
2023-04-11T09:34:49.421Z,99772.31
2023-04-11T09:37:17.199Z,99764.34
2023-04-11T09:39:45.086Z,99768.09
2023-04-11T09:42:12.848Z,99768.09
2023-04-11T09:44:40.678Z,99765.38
2023-04-11T09:47:09.563Z,99767.91
2023-04-11T09:49:37.411Z,99767.09
2023-04-11T09:52:05.246Z,99760.63
2023-04-11T09:54:33.038Z,99773.19
2023-04-11T09:57:00.909Z,99821.13
2023-04-11T09:59:29.130Z,99844.34
2023-04-11T10:01:57.063Z,99855.44
2023-04-11T10:04:24.945Z,99872.38
2023-04-11T10:06:52.823Z,99875.69
2023-04-11T10:09:21.354Z,99868.09
2023-04-11T10:11:49.208Z,99869.72
2023-04-11T10:14:17.007Z,99880.16
2023-04-11T10:16:44.935Z,99886.00
2023-04-11T10:19:12.874Z,99875.13
2023-04-11T10:21:41.940Z,99875.31
2023-04-11T10:24:09.977Z,99871.09
2023-04-11T10:26:37.887Z,99876.53
2023-04-11T10:29:05.693Z,99864.63
2023-04-11T10:31:33.588Z,99857.09
2023-04-11T10:34:01.461Z,99847.69
2023-04-11T10:36:29.270Z,99837.06
2023-04-11T10:38:57.249Z,99848.16
2023-04-11T10:41:25.551Z,99841.22
2023-04-11T10:43:53.447Z,99839.72
2023-04-11T10:46:21.549Z,99855.41
2023-04-11T10:48:49.386Z,99841.16
2023-04-11T10:51:17.440Z,99844.09
2023-04-11T10:53:47.296Z,99854.31
2023-04-11T10:56:16.103Z,99858.28
2023-04-11T10:58:43.983Z,99858.94
2023-04-11T11:01:21.175Z,99851.78
2023-04-11T11:03:59.597Z,99849.28
2023-04-11T11:06:29.244Z,99856.19
2023-04-11T11:08:57.914Z,99858.28
2023-04-11T11:11:25.711Z,99865.19
2023-04-11T11:13:53.943Z,99862.94
2023-04-11T11:16:21.850Z,99865.91
2023-04-11T11:18:49.721Z,99867.38
2023-04-11T11:21:24.747Z,99860.72
2023-04-11T11:23:55.755Z,99869.13
2023-04-11T11:26:24.855Z,99862.91
2023-04-11T11:28:52.684Z,99887.66
2023-04-11T11:31:20.530Z,99894.81
2023-04-11T11:33:48.374Z,99889.78
2023-04-11T11:36:16.139Z,99902.19
2023-04-11T11:38:43.977Z,99899.94
2023-04-11T11:41:11.826Z,99905.16
2023-04-11T11:43:39.642Z,99903.47
2023-04-11T11:46:08.724Z,99909.94
2023-04-11T11:48:36.883Z,99916.03
2023-04-11T11:51:04.668Z,99911.25
2023-04-11T11:53:32.560Z,99927.59
2023-04-11T11:56:00.508Z,99914.38
2023-04-11T11:58:28.318Z,99921.50
2023-04-11T12:00:56.207Z,99916.03
2023-04-11T12:03:24.242Z,99910.19
2023-04-11T12:05:52.991Z,99922.59
2023-04-11T12:08:20.791Z,99922.59
2023-04-11T12:10:48.773Z,99927.19
2023-04-11T12:13:16.852Z,99927.19
2023-04-11T12:15:46.130Z,99924.88
2023-04-11T12:18:14.041Z,99931.38
2023-04-11T12:20:41.865Z,99931.38
2023-04-11T12:23:09.742Z,99940.81
2023-04-11T12:25:37.603Z,99934.13
2023-04-11T12:28:06.100Z,99928.53
2023-04-11T12:30:33.930Z,99935.50
2023-04-11T12:33:01.761Z,99936.16
2023-04-11T12:35:29.612Z,99931.53
2023-04-11T12:37:57.405Z,99921.31
2023-04-11T12:40:25.178Z,99919.00
2023-04-11T12:42:57.201Z,99922.19
2023-04-11T12:45:25.707Z,99923.03
2023-04-11T12:47:53.683Z,99929.31
2023-04-11T12:50:23.352Z,99926.59
2023-04-11T12:52:51.392Z,99924.09
2023-04-11T12:55:19.547Z,99923.84
2023-04-11T12:57:47.432Z,99930.72
2023-04-11T13:00:15.263Z,99933.00
2023-04-11T13:02:45.307Z,99935.88
2023-04-11T13:05:14.476Z,99932.13
2023-04-11T13:07:42.831Z,99930.72
2023-04-11T13:10:10.661Z,99922.34
2023-04-11T13:12:41.631Z,99919.41
2023-04-11T13:15:10.095Z,99916.69
2023-04-11T13:17:37.877Z,99927.41
2023-04-11T13:20:08.991Z,99925.50
2023-04-11T13:22:36.810Z,99931.53
2023-04-11T13:25:04.643Z,99941.31
2023-04-11T13:27:32.694Z,99945.88
2023-04-11T13:30:00.665Z,99948.97
2023-04-11T13:32:28.507Z,99956.25
2023-04-11T13:34:56.829Z,99949.13
2023-04-11T13:37:24.813Z,99944.50
2023-04-11T13:39:52.724Z,99951.84
2023-04-11T13:42:21.846Z,99949.13
2023-04-11T13:44:49.625Z,99950.22
2023-04-11T13:47:17.429Z,99951.88
2023-04-11T13:49:45.512Z,99951.97
2023-04-11T13:52:13.388Z,99943.59
2023-04-11T13:54:41.361Z,99958.66
2023-04-11T13:57:09.752Z,99946.22
2023-04-11T13:59:37.634Z,99946.03
2023-04-11T14:02:05.501Z,99939.59
2023-04-11T14:04:33.490Z,99935.66
2023-04-11T14:07:01.460Z,99937.16
2023-04-11T14:09:29.359Z,99929.63
2023-04-11T14:11:57.974Z,99934.47
2023-04-11T14:14:25.835Z,99925.88
2023-04-11T14:16:53.893Z,99940.75
2023-04-11T14:19:24.880Z,99939.28
2023-04-11T14:21:52.785Z,99940.72
2023-04-11T14:24:22.352Z,99940.09
2023-04-11T14:26:50.575Z,99928.13
2023-04-11T14:29:19.483Z,99942.63
2023-04-11T14:31:48.968Z,99942.22
2023-04-11T14:34:18.754Z,99946.19
2023-04-11T14:36:46.560Z,99933.34
2023-04-11T14:39:15.585Z,99950.56
2023-04-11T14:41:43.565Z,99932.28
2023-04-11T14:44:12.135Z,99933.31
2023-04-11T14:46:39.970Z,99951.34
2023-04-11T14:49:07.807Z,99950.72
2023-04-11T14:51:35.806Z,99956.34
2023-04-11T14:54:03.711Z,99968.50
2023-04-11T14:56:31.731Z,99971.84
2023-04-11T14:59:00.297Z,99976.00
2023-04-11T15:01:28.187Z,99970.31
2023-04-11T15:03:56.739Z,99971.56
2023-04-11T15:06:24.755Z,99968.41
2023-04-11T15:08:52.604Z,99964.56
2023-04-11T15:11:20.444Z,99971.44
2023-04-11T15:13:49.307Z,99968.28
2023-04-11T15:16:18.785Z,99971.63
2023-04-11T15:18:48.023Z,99966.75
2023-04-11T15:21:16.020Z,99960.22
2023-04-11T15:23:44.939Z,99957.72
2023-04-11T15:26:12.730Z,99973.44
2023-04-11T15:28:40.503Z,99975.75
2023-04-11T15:31:09.017Z,99979.91
2023-04-11T15:33:37.462Z,99970.06
2023-04-11T15:36:05.286Z,99979.28
2023-04-11T15:38:33.127Z,99971.47
2023-04-11T15:41:01.153Z,99974.59
2023-04-11T15:43:29.009Z,99969.38
2023-04-11T15:45:56.809Z,99972.28
2023-04-11T15:48:24.589Z,99974.16
2023-04-11T15:50:52.367Z,99982.78
2023-04-11T15:53:20.158Z,99984.72
2023-04-11T15:55:49.068Z,99985.84
2023-04-11T15:58:17.050Z,99986.16
2023-04-11T16:00:45.229Z,99996.47
2023-04-11T16:03:13.282Z,99987.66
2023-04-11T16:05:43.224Z,99987.50
2023-04-11T16:08:11.810Z,99993.59
2023-04-11T16:10:39.641Z,99993.78
2023-04-11T16:13:07.512Z,100009.47
2023-04-11T16:15:35.392Z,99999.81
2023-04-11T16:18:03.176Z,99998.13
2023-04-11T16:20:31.168Z,100000.22
2023-04-11T16:22:58.939Z,99993.91
2023-04-11T16:25:26.750Z,100003.16
2023-04-11T16:27:54.570Z,100000.38
2023-04-11T16:30:22.457Z,100003.50
2023-04-11T16:32:50.353Z,100002.66
2023-04-11T16:35:18.221Z,100006.22
2023-04-11T16:37:46.042Z,100003.50
2023-04-11T16:40:14.397Z,100009.38
2023-04-11T16:42:42.369Z,100007.03
2023-04-11T16:45:10.254Z,100008.28
2023-04-11T16:47:38.115Z,100026.91
2023-04-11T16:50:06.528Z,100043.66
2023-04-11T16:52:34.489Z,100062.94
2023-04-11T16:55:03.415Z,100073.22
2023-04-11T16:57:33.247Z,100068.09
2023-04-11T17:00:06.409Z,100100.41
2023-04-11T17:02:34.377Z,100118.81
2023-04-11T17:05:02.452Z,100125.72
2023-04-11T17:07:30.439Z,100140.97
2023-04-11T17:09:58.299Z,100149.06
2023-04-11T17:12:26.103Z,100153.63
2023-04-11T17:14:55.359Z,100175.66
2023-04-11T17:17:23.358Z,100177.84
2023-04-11T17:19:51.412Z,100182.84
2023-04-11T17:22:19.515Z,100177.47
2023-04-11T17:24:47.635Z,100188.28
2023-04-11T17:27:15.637Z,100216.75
2023-04-11T17:29:43.562Z,100215.22
2023-04-11T17:32:12.060Z,100206.06
2023-04-11T17:34:40.033Z,100192.22
2023-04-11T17:37:07.890Z,100201.72
2023-04-11T17:39:35.700Z,100184.59
2023-04-11T17:42:03.581Z,100166.09
2023-04-11T17:44:31.464Z,100164.25
2023-04-11T17:46:59.382Z,100147.63
2023-04-11T17:49:28.307Z,100148.53
2023-04-11T17:51:59.041Z,100145.22
2023-04-11T17:54:27.342Z,100143.72
2023-04-11T17:56:55.253Z,100144.31
2023-04-11T17:59:24.129Z,100154.41
2023-04-11T18:01:53.452Z,100154.78
2023-04-11T18:04:21.624Z,100152.06
2023-04-11T18:06:49.537Z,100178.03
2023-04-11T18:09:17.582Z,100193.75
2023-04-11T18:11:45.670Z,100208.81
2023-04-11T18:14:13.497Z,100207.91
2023-04-11T18:16:41.554Z,100221.28
2023-04-11T18:19:09.368Z,100236.34
2023-04-11T18:21:37.265Z,100224.13
2023-04-11T18:24:05.477Z,100232.50
2023-04-11T18:26:33.303Z,100242.09
2023-04-11T18:29:01.355Z,100238.28
2023-04-11T18:31:29.160Z,100243.47
2023-04-11T18:33:57.676Z,100242.16
2023-04-11T18:36:26.319Z,100242.94
2023-04-11T18:38:55.025Z,100248.09
2023-04-11T18:41:23.370Z,100245.09
2023-04-11T18:43:51.159Z,100235.59
2023-04-11T18:46:19.204Z,100227.81
2023-04-11T18:48:47.042Z,100229.59
2023-04-11T18:51:14.901Z,100228.50
2023-04-11T18:53:42.828Z,100216.31
2023-04-11T18:56:10.738Z,100207.44
2023-04-11T18:58:45.451Z,100206.53
2023-04-11T19:01:16.912Z,100198.91
2023-04-11T19:03:46.293Z,100194.78
2023-04-11T19:06:14.694Z,100188.09
2023-04-11T19:08:42.955Z,100179.00
2023-04-11T19:11:10.812Z,100192.53
2023-04-11T19:13:38.820Z,100187.63
2023-04-11T19:16:06.724Z,100180.97
2023-04-11T19:18:34.562Z,100183.25
2023-04-11T19:21:02.373Z,100184.28
2023-04-11T19:23:30.413Z,100180.22
2023-04-11T19:26:00.592Z,100186.72
2023-04-11T19:28:28.434Z,100178.91
2023-04-11T19:30:56.538Z,100188.28
2023-04-11T19:33:26.213Z,100193.63
2023-04-11T19:35:54.297Z,100183.81
2023-04-11T19:38:22.494Z,100178.91
2023-04-11T19:40:51.694Z,100177.19
2023-04-11T19:43:19.867Z,100182.34
2023-04-11T19:45:47.739Z,100183.38
2023-04-11T19:48:16.336Z,100182.03
2023-04-11T19:50:44.188Z,100180.53
2023-04-11T19:53:12.009Z,100178.00
2023-04-11T19:55:40.145Z,100171.06
2023-04-11T19:58:07.893Z,100181.09
2023-04-11T20:00:37.704Z,100186.03
2023-04-11T20:03:07.851Z,100188.28
2023-04-11T20:05:36.144Z,100183.03
2023-04-11T20:08:04.054Z,100188.47
2023-04-11T20:10:32.286Z,100182.38
2023-04-11T20:13:00.102Z,100181.53
2023-04-11T20:15:28.477Z,100170.00
2023-04-11T20:17:56.292Z,100177.66
2023-04-11T20:20:25.560Z,100166.31
2023-04-11T20:22:53.746Z,100169.03
2023-04-11T20:25:21.552Z,100173.63
2023-04-11T20:27:49.348Z,100171.09
2023-04-11T20:30:17.378Z,100178.56
2023-04-11T20:32:45.364Z,100171.16
2023-04-11T20:35:13.229Z,100174.06
2023-04-11T20:37:41.391Z,100171.53
2023-04-11T20:40:10.280Z,100182.56
2023-04-11T20:42:40.045Z,100188.31
2023-04-11T20:45:08.535Z,100191.22
2023-04-11T20:47:37.382Z,100183.25
2023-04-11T20:50:05.468Z,100186.13
2023-04-11T20:52:33.514Z,100182.09
2023-04-11T20:55:02.398Z,100177.69
2023-04-11T20:57:31.136Z,100179.56
2023-04-11T20:59:59.081Z,100183.31
2023-04-11T21:02:27.872Z,100178.03
2023-04-11T21:04:55.941Z,100179.09
2023-04-11T21:07:23.864Z,100175.53
2023-04-11T21:09:51.852Z,100179.25
2023-04-11T21:12:19.696Z,100184.22
2023-04-11T21:14:47.501Z,100177.06
2023-04-11T21:17:15.356Z,100184.22
2023-04-11T21:19:43.248Z,100181.13
2023-04-11T21:22:11.416Z,100179.63
2023-04-11T21:24:39.202Z,100178.94
2023-04-11T21:27:07.151Z,100175.03
2023-04-11T21:29:34.966Z,100170.78
2023-04-11T21:32:02.759Z,100169.28
2023-04-11T21:34:30.875Z,100169.97
2023-04-11T21:36:58.697Z,100159.47
2023-04-11T21:39:26.582Z,100163.22
2023-04-11T21:41:54.475Z,100161.50
2023-04-11T21:44:22.316Z,100164.41
2023-04-11T21:46:50.344Z,100166.47
2023-04-11T21:49:18.267Z,100161.19
2023-04-11T21:51:46.058Z,100168.50
2023-04-11T21:54:13.864Z,100157.81
2023-04-11T21:56:43.704Z,100167.00
2023-04-11T21:59:11.715Z,100163.59
2023-04-11T22:01:39.554Z,100166.16
2023-04-11T22:04:10.685Z,100173.47
2023-04-11T22:06:38.997Z,100173.09
2023-04-11T22:09:06.822Z,100175.50
2023-04-11T22:11:34.698Z,100181.97
2023-04-11T22:14:03.360Z,100179.59
2023-04-11T22:16:31.567Z,100172.50
2023-04-11T22:19:00.693Z,100174.16
2023-04-11T22:21:28.641Z,100171.47
2023-04-11T22:23:56.761Z,100167.22
2023-04-11T22:26:26.809Z,100171.81
2023-04-11T22:28:55.479Z,100170.78
2023-04-11T22:31:23.392Z,100166.22
2023-04-11T22:33:51.336Z,100159.28
2023-04-11T22:36:19.151Z,100163.34
2023-04-11T22:38:47.094Z,100160.66
2023-04-11T22:41:14.861Z,100155.03
2023-04-11T22:43:42.668Z,100149.94
2023-04-11T22:46:10.884Z,100144.00
2023-04-11T22:48:38.810Z,100137.06
2023-04-11T22:51:07.191Z,100143.16
2023-04-11T22:53:34.968Z,100152.16
2023-04-11T22:56:03.188Z,100143.00
2023-04-11T22:58:31.171Z,100135.03
2023-04-11T23:00:59.402Z,100134.19
2023-04-11T23:03:27.413Z,100141.28
2023-04-11T23:05:55.268Z,100140.63
2023-04-11T23:08:23.065Z,100134.53
2023-04-11T23:10:50.845Z,100135.19
2023-04-11T23:13:19.242Z,100129.28
2023-04-11T23:15:47.376Z,100127.41
2023-04-11T23:18:15.230Z,100123.00
2023-04-11T23:20:43.141Z,100119.97
2023-04-11T23:23:11.614Z,100111.00
2023-04-11T23:25:40.661Z,100111.16
2023-04-11T23:28:08.661Z,100104.91
2023-04-11T23:30:37.511Z,100104.69
2023-04-11T23:33:06.006Z,100104.69
2023-04-11T23:35:34.496Z,100101.97
2023-04-11T23:38:02.410Z,100098.94
2023-04-11T23:40:31.166Z,100100.78
2023-04-11T23:42:59.374Z,100095.53
2023-04-11T23:45:27.187Z,100093.97
2023-04-11T23:47:55.238Z,100093.13
2023-04-11T23:50:23.123Z,100077.38
2023-04-11T23:52:53.614Z,100080.81
2023-04-11T23:55:22.040Z,100073.69
2023-04-11T23:57:49.846Z,100067.41
